Astoria, OR

10:15 AM PST on February 12, 2016 (GMT -0800)
The Slope of South | | Change Station
CLOSE
Current Station
Personal Weather Station
Location: Astoria, OR
Elevation: 213 ft
Nearby Weather Stations

Elev 213 ft 46.18 °N, 123.84 °W | Updated 9 minutes ago

Overcast
Overcast
53.1 °F
Feels Like 53.1 °F
N
6.3
Wind Variable Wind from SW

Today
High -- | Low -- °F
--% Chance of Precip.
Yesterday
High -- | Low -- °F
Precip. -- in
Pressure 30.14 in
Visibility 7.0 miles
Clouds Scattered Clouds 900 ft
Mostly Cloudy 1400 ft
Overcast 2600 ft
Dew Point 50 °F
Humidity 91%
Rainfall 0.40 in
Snow Depth Not available.
7:23 AM 5:36 PM
Waxing Crescent, 22% visible
METAR KAST 121755Z AUTO 20010KT 7SM SCT009 BKN014 OVC026 12/11 A3014 RMK AO2 RAE13 SLP205 P0000 60026 T01220111 10128 20111 51019
Pressure 30.14 in
Visibility 7.0 miles
Clouds Scattered Clouds 900 ft
Mostly Cloudy 1400 ft
Overcast 2600 ft
Dew Point 50 °F
Humidity 91%
Rainfall 0.40 in
Snow Depth Not available.
7:23 AM 5:36 PM
Waxing Crescent, 22% visible
METAR KAST 121755Z AUTO 20010KT 7SM SCT009 BKN014 OVC026 12/11 A3014 RMK AO2 RAE13 SLP205 P0000 60026 T01220111 10128 20111 51019

10-Day Weather Forecast

Almanac

Astronomy

Feb. 12, 2016 Rise Set
Actual Time
Civil Twilight
Nautical Twilight
Astronomical Twilight
Moon
Length of Visible Light
Length of Day
Tomorrow will be .
, % of the Moon is Illuminated

Today's Extremes

State Highs State Lows

Community

WunderPhotos

Upload Photos

1,892,359 photos uploaded!

WunderBlog® & News

Nearby

Air Quality

  Air Quality AQ Index Pollutant
Not available.

Snow Depth

Station Depth Elevation

Earthquake Activity

City Distance Mag. Time & Date
Minimum magnitude displayed is 2.5.

Coastal Water Temperatures

Place Temperature

Stations

Nearby Weather Stations

Station Location Temp. Windchill Dew Point Humidity Wind Precip. Elev Updated Type
                   

Watches & Warnings

There are currently no watches in effect.